Terminal Aerodrome Forecast
Issued by NWS St Louis, MO

Home | Current Version | Previous Version | Text Only | Print | Product List | Glossary On
Versions: 1 2 3 4 5 6 7 8 9 10 11 12 13 14 15 16 17 18 19 20 21
188
FTUS43 KLSX 181135
TAFCOU
TAF
KCOU 181135Z 1812/1912 10004KT P6SM BKN100
     FM181800 18005KT P6SM VCTS BKN040CB
     FM190000 VRB03KT P6SM VCTS BKN040CB
     FM190600 VRB03KT P6SM BKN040=

USA.gov is the U.S. government's official web portal to all federal, state and local government web resources and services.